Time;durP1;ratioP1;P1;durP2;ratioP2;P2;SDS_P1;SDS_P2;PMS_P1;PMS_P2;Temp;Humidity;BMP_temperature;BMP_pressure;BME280_temperature;BME280_humidity;BME280_pressure;Samples;Min_cycle;Max_cycle;Signal;HPM_P1;HPM_P2
2021/08/28 00:01:28;;;;;;;14.50;3.22;;;16.00;99.90;;;;;;4825555;29;20056;-89
2021/08/28 00:03:53;;;;;;;11.88;3.03;;;15.90;99.90;;;;;;4851491;29;20063;-89
2021/08/28 00:06:19;;;;;;;12.07;3.00;;;15.90;99.90;;;;;;4855673;29;20112;-90
2021/08/28 00:08:45;;;;;;;7.63;3.00;;;15.90;99.90;;;;;;4844862;29;20561;-90
2021/08/28 00:11:10;;;;;;;6.85;2.72;;;15.90;99.90;;;;;;4841416;29;20275;-91
2021/08/28 00:13:37;;;;;;;14.48;4.03;;;15.80;99.90;;;;;;4837785;29;20037;-91
2021/08/28 00:16:02;;;;;;;11.43;3.03;;;15.80;99.90;;;;;;4862002;29;20101;-91
2021/08/28 00:18:28;;;;;;;8.70;4.10;;;15.80;99.90;;;;;;4840312;29;20049;-90
2021/08/28 00:20:54;;;;;;;11.25;3.40;;;15.80;99.90;;;;;;4849954;29;20057;-89
2021/08/28 00:23:20;;;;;;;20.88;3.60;;;15.80;99.90;;;;;;4843517;29;20049;-90
2021/08/28 00:25:46;;;;;;;11.20;2.92;;;15.80;99.90;;;;;;4836069;29;20061;-90
2021/08/28 00:28:11;;;;;;;10.98;3.10;;;15.80;99.90;;;;;;4843664;29;20053;-91
2021/08/28 00:30:37;;;;;;;11.63;3.00;;;15.80;99.90;;;;;;4847932;29;20077;-91
2021/08/28 00:33:14;;;;;;;7.57;2.97;;;15.80;99.90;;;;;;4835053;29;20046;-92
2021/08/28 00:35:41;;;;;;;8.80;2.83;;;15.80;99.90;;;;;;4863096;29;20049;-91
2021/08/28 00:38:07;;;;;;;12.75;2.92;;;15.80;99.90;;;;;;4844485;29;20045;-92
2021/08/28 00:40:35;;;;;;;13.77;2.85;;;15.80;99.90;;;;;;4873065;29;20179;-92
2021/08/28 00:43:01;;;;;;;10.93;3.47;;;15.80;99.90;;;;;;4833954;29;20120;-90
2021/08/28 00:45:31;;;;;;;20.48;3.28;;;15.80;99.90;;;;;;4857757;29;20181;-90
2021/08/28 00:48:02;;;;;;;13.07;3.38;;;15.80;99.90;;;;;;4852051;29;20049;-90
2021/08/28 00:50:29;;;;;;;13.98;3.05;;;15.80;99.90;;;;;;4856923;29;20343;-92
2021/08/28 00:52:55;;;;;;;13.10;2.75;;;15.90;99.90;;;;;;4847250;29;20045;-92
2021/08/28 00:55:25;;;;;;;7.40;2.88;;;15.90;99.90;;;;;;4862149;29;20191;-92
2021/08/28 00:57:53;;;;;;;11.45;2.80;;;15.90;99.90;;;;;;4862622;29;20053;-90
2021/08/28 01:00:19;;;;;;;8.23;3.13;;;15.90;99.90;;;;;;4856536;29;20295;-92
2021/08/28 01:02:48;;;;;;;12.02;3.30;;;15.90;99.90;;;;;;4852567;29;20256;-93
2021/08/28 01:05:37;;;;;;;8.88;3.15;;;15.90;99.90;;;;;;4856221;29;20197;-92
2021/08/28 01:08:14;;;;;;;10.55;4.40;;;15.90;99.90;;;;;;4814082;29;20072;-91
2021/08/28 01:10:56;;;;;;;9.65;3.20;;;15.90;99.90;;;;;;4857104;29;20048;-90
2021/08/28 01:13:23;;;;;;;11.52;3.00;;;15.90;99.90;;;;;;4851413;29;20733;-89
2021/08/28 01:15:52;;;;;;;9.15;3.38;;;15.90;99.90;;;;;;4848318;29;20122;-90
2021/08/28 01:18:20;;;;;;;9.18;2.70;;;15.90;99.90;;;;;;4852154;29;20108;-90
2021/08/28 01:20:57;;;;;;;14.43;3.03;;;15.90;99.90;;;;;;4841439;29;20525;-92
2021/08/28 01:23:26;;;;;;;7.15;2.22;;;15.80;99.90;;;;;;4860449;29;20037;-90
2021/08/28 01:25:53;;;;;;;12.30;2.60;;;15.80;99.90;;;;;;4843401;29;20057;-91
2021/08/28 01:28:21;;;;;;;7.07;2.72;;;15.90;99.90;;;;;;4827205;29;20053;-90
2021/08/28 01:30:47;;;;;;;6.80;2.33;;;15.90;99.90;;;;;;4855393;29;20053;-91
2021/08/28 01:33:14;;;;;;;8.63;2.47;;;15.80;99.90;;;;;;4855349;29;20830;-90
2021/08/28 01:35:43;;;;;;;7.10;2.25;;;15.80;99.90;;;;;;4853648;29;20049;-90
2021/08/28 01:38:11;;;;;;;8.85;2.65;;;15.80;99.90;;;;;;4860472;29;20052;-91
2021/08/28 01:40:37;;;;;;;12.05;2.03;;;15.90;99.90;;;;;;4861438;29;20053;-90
2021/08/28 01:43:05;;;;;;;8.75;2.67;;;15.80;99.90;;;;;;4858689;29;20056;-89
2021/08/28 01:45:32;;;;;;;5.68;2.45;;;15.90;99.90;;;;;;4858137;29;20100;-91
2021/08/28 01:47:58;;;;;;;6.90;2.40;;;15.90;99.90;;;;;;4817588;29;20064;-89
2021/08/28 01:50:25;;;;;;;10.98;2.08;;;15.90;99.90;;;;;;4859845;29;20214;-90
2021/08/28 01:52:51;;;;;;;6.60;2.72;;;15.90;99.90;;;;;;4845450;29;20056;-90
2021/08/28 01:55:17;;;;;;;10.60;2.80;;;15.90;99.90;;;;;;4850197;29;20056;-90
2021/08/28 01:57:43;;;;;;;12.55;3.08;;;15.90;99.90;;;;;;4860352;29;20128;-91
2021/08/28 02:00:10;;;;;;;11.57;3.25;;;15.90;99.90;;;;;;4860011;29;20140;-89
2021/08/28 02:02:36;;;;;;;13.52;3.40;;;15.80;99.90;;;;;;4860576;29;20100;-90
2021/08/28 02:05:02;;;;;;;11.25;3.10;;;15.80;99.90;;;;;;4845224;29;20526;-90
2021/08/28 02:07:43;;;;;;;10.95;3.33;;;15.80;99.90;;;;;;4845081;29;20188;-91
2021/08/28 02:10:12;;;;;;;;;;;15.80;99.90;;;;;;4846470;29;20086;-89
2021/08/28 02:12:42;;;;;;;9.93;3.55;;;15.80;99.90;;;;;;4845129;29;19931;-90
2021/08/28 02:15:29;;;;;;;13.77;3.53;;;15.80;99.90;;;;;;4875603;29;20056;-90
2021/08/28 02:17:59;;;;;;;10.20;3.60;;;15.80;99.90;;;;;;4860510;29;20057;-90
2021/08/28 02:20:30;;;;;;;7.90;3.42;;;15.80;99.90;;;;;;4859076;29;20056;-90
2021/08/28 02:23:01;;;;;;;12.27;4.28;;;15.80;99.90;;;;;;4845204;29;20059;-90
2021/08/28 02:26:03;;;;;;;16.35;4.70;;;15.80;99.90;;;;;;4840795;29;20100;-90
2021/08/28 02:28:45;;;;;;;8.45;3.72;;;15.70;99.90;;;;;;4848080;29;20118;-91
2021/08/28 02:31:12;;;;;;;14.65;3.97;;;15.70;99.90;;;;;;4860512;29;20084;-90
2021/08/28 02:33:38;;;;;;;15.82;4.35;;;15.70;99.90;;;;;;4859491;29;20063;-90
2021/08/28 02:36:06;;;;;;;10.48;3.78;;;15.70;99.90;;;;;;4821821;29;20128;-91
2021/08/28 02:38:32;;;;;;;8.68;3.58;;;15.70;99.90;;;;;;4859569;29;20052;-90
2021/08/28 02:41:02;;;;;;;11.88;3.25;;;15.70;99.90;;;;;;4829792;29;20147;-91
2021/08/28 02:43:29;;;;;;;6.80;3.53;;;15.70;99.90;;;;;;4854250;29;20046;-90
2021/08/28 02:45:55;;;;;;;12.73;3.72;;;15.70;99.90;;;;;;4837519;29;20144;-91
2021/08/28 02:48:24;;;;;;;12.85;3.65;;;15.70;99.90;;;;;;4859362;29;20049;-90
2021/08/28 02:50:52;;;;;;;15.35;4.18;;;15.70;99.90;;;;;;4860182;29;20045;-91
2021/08/28 02:53:20;;;;;;;13.30;4.13;;;15.70;99.90;;;;;;4858621;29;20087;-90
2021/08/28 02:55:48;;;;;;;12.55;3.20;;;15.70;99.90;;;;;;4851784;29;20060;-91
2021/08/28 02:58:15;;;;;;;13.25;4.43;;;15.70;99.90;;;;;;4859496;29;20082;-90
2021/08/28 03:00:43;;;;;;;11.68;3.75;;;15.80;99.90;;;;;;4859958;29;20049;-90
2021/08/28 03:03:14;;;;;;;14.68;4.40;;;15.80;99.90;;;;;;4839081;29;20398;-91
2021/08/28 03:05:44;;;;;;;10.10;4.65;;;15.80;99.90;;;;;;4847503;29;20041;-90
2021/08/28 03:08:11;;;;;;;;;;;15.80;99.90;;;;;;4830372;29;20053;-91
2021/08/28 03:10:37;;;;;;;12.85;3.30;;;15.80;99.90;;;;;;4843805;29;20188;-92
2021/08/28 03:13:03;;;;;;;14.98;4.15;;;15.80;99.90;;;;;;4829231;29;20041;-91
2021/08/28 03:15:29;;;;;;;9.40;3.83;;;15.80;99.90;;;;;;4832041;29;20053;-91
2021/08/28 03:17:56;;;;;;;10.32;3.58;;;15.90;99.90;;;;;;4859058;29;20049;-90
2021/08/28 03:20:23;;;;;;;10.45;3.60;;;15.80;99.90;;;;;;4833122;29;20068;-91
2021/08/28 03:22:50;;;;;;;12.40;4.13;;;15.90;99.90;;;;;;4842598;29;20565;-92
2021/08/28 03:25:18;;;;;;;9.82;3.70;;;15.90;99.90;;;;;;4843690;29;20057;-91
2021/08/28 03:27:44;;;;;;;17.00;3.65;;;15.90;99.90;;;;;;4859694;29;20128;-91
2021/08/28 03:30:13;;;;;;;13.77;3.97;;;15.90;99.90;;;;;;4859564;29;20053;-91
2021/08/28 03:32:41;;;;;;;10.32;3.50;;;15.90;99.90;;;;;;4845481;29;20045;-91
2021/08/28 03:35:11;;;;;;;15.20;4.15;;;15.90;99.90;;;;;;4863004;29;20108;-91
2021/08/28 03:37:39;;;;;;;10.90;4.22;;;15.90;99.90;;;;;;4847308;29;20084;-91
2021/08/28 03:40:07;;;;;;;13.50;3.58;;;15.90;99.90;;;;;;4863359;29;20060;-92
2021/08/28 03:42:32;;;;;;;9.00;3.53;;;15.90;99.90;;;;;;4836039;29;20452;-91
2021/08/28 03:44:58;;;;;;;13.63;3.78;;;16.00;99.90;;;;;;4856905;29;20049;-91
2021/08/28 03:47:25;;;;;;;13.35;4.07;;;16.00;99.90;;;;;;4838159;29;20075;-89
2021/08/28 03:49:50;;;;;;;8.82;2.72;;;16.00;99.90;;;;;;4862933;29;20061;-90
2021/08/28 03:52:16;;;;;;;11.10;3.55;;;16.00;99.90;;;;;;4847383;29;20117;-91
2021/08/28 03:54:42;;;;;;;16.40;3.90;;;16.00;99.90;;;;;;4855291;29;20602;-90
2021/08/28 03:57:07;;;;;;;7.72;3.50;;;16.10;99.90;;;;;;4863079;29;20045;-91
2021/08/28 03:59:33;;;;;;;11.43;3.50;;;16.10;99.90;;;;;;4846695;29;20076;-89
2021/08/28 04:01:59;;;;;;;10.98;3.38;;;16.10;99.90;;;;;;4831913;29;20383;-93
2021/08/28 04:04:24;;;;;;;10.57;3.50;;;16.10;99.90;;;;;;4859887;29;20128;-91
2021/08/28 04:06:50;;;;;;;13.05;4.05;;;16.10;99.90;;;;;;4846027;29;20057;-91
2021/08/28 04:09:16;;;;;;;10.13;3.30;;;16.20;99.90;;;;;;4840045;29;20663;-89
2021/08/28 04:11:44;;;;;;;7.95;2.33;;;16.20;99.90;;;;;;4852494;29;20041;-91
2021/08/28 04:14:10;;;;;;;18.08;4.88;;;16.20;99.90;;;;;;4859799;29;20105;-90
2021/08/28 04:16:36;;;;;;;11.32;3.47;;;16.20;99.90;;;;;;4820697;29;20041;-91
2021/08/28 04:19:01;;;;;;;10.75;3.00;;;16.20;99.90;;;;;;4827672;29;20088;-92
2021/08/28 04:21:27;;;;;;;11.82;3.22;;;16.10;99.90;;;;;;4846597;29;20112;-92
2021/08/28 04:23:53;;;;;;;6.22;2.75;;;16.20;99.90;;;;;;4847201;29;20053;-93
2021/08/28 04:26:18;;;;;;;11.20;2.67;;;16.20;99.90;;;;;;4833271;29;20119;-94
2021/08/28 04:28:44;;;;;;;12.93;3.67;;;16.20;99.90;;;;;;4847126;29;20249;-94
2021/08/28 04:31:10;;;;;;;18.75;4.00;;;16.20;99.90;;;;;;4846977;29;20057;-93
2021/08/28 04:33:35;;;;;;;16.67;3.67;;;16.30;99.90;;;;;;4846634;29;20109;-94
2021/08/28 04:36:01;;;;;;;10.15;2.83;;;16.20;99.90;;;;;;4859775;29;20056;-95
2021/08/28 04:38:27;;;;;;;16.90;3.65;;;16.20;99.90;;;;;;4862182;29;20486;-94
2021/08/28 04:40:53;;;;;;;16.13;3.85;;;16.20;99.90;;;;;;4829172;29;20055;-94
2021/08/28 04:43:19;;;;;;;21.38;3.80;;;16.20;99.90;;;;;;4845937;29;20124;-92
2021/08/28 04:45:45;;;;;;;8.65;3.17;;;16.20;99.90;;;;;;4821206;29;20048;-94
2021/08/28 04:48:10;;;;;;;9.20;3.10;;;16.20;99.90;;;;;;4843801;29;20053;-93
2021/08/28 04:50:36;;;;;;;15.20;3.53;;;16.30;99.90;;;;;;4861673;29;20057;-94
2021/08/28 04:53:02;;;;;;;9.23;3.10;;;16.20;99.90;;;;;;4848945;29;20064;-91
2021/08/28 04:55:29;;;;;;;13.98;3.05;;;16.20;99.90;;;;;;4840872;29;20057;-91
2021/08/28 04:57:55;;;;;;;12.05;4.13;;;16.20;99.90;;;;;;4862325;29;20052;-94
2021/08/28 05:00:22;;;;;;;11.15;4.35;;;16.20;99.90;;;;;;4847205;29;20076;-94
2021/08/28 05:02:47;;;;;;;13.27;4.10;;;16.30;99.90;;;;;;4856432;29;20121;-93
2021/08/28 05:05:13;;;;;;;7.57;2.88;;;16.20;99.90;;;;;;4839866;29;20064;-93
2021/08/28 05:07:39;;;;;;;10.52;3.38;;;16.20;99.90;;;;;;4843200;29;20080;-94
2021/08/28 05:10:06;;;;;;;10.25;3.28;;;16.20;99.90;;;;;;4842739;29;20049;-92
2021/08/28 05:12:31;;;;;;;13.18;4.15;;;16.30;99.90;;;;;;4860866;29;20407;-93
2021/08/28 05:14:57;;;;;;;11.25;3.60;;;16.30;99.90;;;;;;4876990;29;20057;-92
2021/08/28 05:17:23;;;;;;;17.08;3.53;;;16.20;99.90;;;;;;4862051;29;20402;-93
2021/08/28 05:19:49;;;;;;;10.60;3.03;;;16.20;99.90;;;;;;4860940;29;20099;-93
2021/08/28 05:22:14;;;;;;;16.85;3.80;;;16.20;99.90;;;;;;4846209;29;20060;-93
2021/08/28 05:24:40;;;;;;;11.95;3.65;;;16.10;99.90;;;;;;4861222;29;20131;-92
2021/08/28 05:27:06;;;;;;;12.13;3.38;;;16.00;99.90;;;;;;4821294;29;20562;-91
2021/08/28 05:29:32;;;;;;;12.73;3.38;;;16.00;99.90;;;;;;4857489;29;20161;-91
2021/08/28 05:31:58;;;;;;;14.40;4.95;;;16.00;99.90;;;;;;4846001;29;20051;-93
2021/08/28 05:34:23;;;;;;;15.63;3.78;;;16.00;99.90;;;;;;4861312;29;20064;-93
2021/08/28 05:36:49;;;;;;;15.30;3.83;;;16.00;99.90;;;;;;4842621;29;20486;-93
2021/08/28 05:39:14;;;;;;;11.32;2.88;;;16.00;99.90;;;;;;4854540;29;20049;-92
2021/08/28 05:41:40;;;;;;;7.75;2.53;;;16.00;99.90;;;;;;4845544;29;20049;-91
2021/08/28 05:44:06;;;;;;;11.10;3.47;;;16.00;99.90;;;;;;4831405;29;20053;-93
2021/08/28 05:46:32;;;;;;;10.15;3.33;;;16.10;99.90;;;;;;4848229;29;20049;-92
2021/08/28 05:48:57;;;;;;;16.95;3.58;;;16.10;99.90;;;;;;4812978;29;20055;-92
2021/08/28 05:51:23;;;;;;;6.85;2.35;;;16.10;99.90;;;;;;4809868;29;20059;-91
2021/08/28 05:53:49;;;;;;;9.45;3.50;;;16.10;99.90;;;;;;4841407;29;20045;-93
2021/08/28 05:56:14;;;;;;;9.35;3.00;;;16.10;99.90;;;;;;4832760;29;20092;-91
2021/08/28 05:58:40;;;;;;;8.50;3.50;;;16.10;99.90;;;;;;4842798;29;20041;-92
2021/08/28 06:01:06;;;;;;;8.77;3.17;;;16.20;99.90;;;;;;4849554;29;20465;-91
2021/08/28 06:03:31;;;;;;;11.90;2.95;;;16.20;99.90;;;;;;4840573;29;20049;-92
2021/08/28 06:05:57;;;;;;;9.15;2.88;;;16.20;99.90;;;;;;4848548;29;20945;-92
2021/08/28 06:08:23;;;;;;;7.88;2.70;;;16.20;99.90;;;;;;4838012;29;20113;-91
2021/08/28 06:10:48;;;;;;;6.90;2.35;;;16.20;99.90;;;;;;4853947;29;20049;-94
2021/08/28 06:13:14;;;;;;;14.70;4.07;;;16.20;99.90;;;;;;4849222;29;20081;-91
2021/08/28 06:15:40;;;;;;;10.35;2.95;;;16.30;99.90;;;;;;4842722;29;20489;-91
2021/08/28 06:18:06;;;;;;;11.65;2.97;;;16.30;99.90;;;;;;4834561;29;20059;-91
2021/08/28 06:20:32;;;;;;;12.45;3.75;;;16.30;99.90;;;;;;4834684;29;20064;-94
2021/08/28 06:22:57;;;;;;;10.73;3.38;;;16.30;99.90;;;;;;4843464;29;20656;-94
2021/08/28 06:25:23;;;;;;;9.27;2.85;;;16.30;99.90;;;;;;4842998;29;20094;-91
2021/08/28 06:27:49;;;;;;;8.85;3.42;;;16.30;99.90;;;;;;4844582;29;21565;-94
2021/08/28 06:30:15;;;;;;;9.85;2.80;;;16.40;99.90;;;;;;4850922;29;20106;-91
2021/08/28 06:32:41;;;;;;;13.52;3.47;;;16.40;99.90;;;;;;4846371;29;20041;-93
2021/08/28 06:35:07;;;;;;;10.15;2.70;;;16.40;99.90;;;;;;4827644;29;20053;-94
2021/08/28 06:37:32;;;;;;;16.17;2.97;;;16.50;99.90;;;;;;4835520;29;20155;-92
2021/08/28 06:39:58;;;;;;;7.50;2.65;;;16.60;99.90;;;;;;4838999;29;20553;-92
2021/08/28 06:42:24;;;;;;;6.82;2.20;;;16.60;99.90;;;;;;4833986;29;20049;-94
2021/08/28 06:44:49;;;;;;;12.60;3.97;;;16.70;99.90;;;;;;4843303;29;20058;-91
2021/08/28 06:47:15;;;;;;;11.90;2.50;;;16.80;99.90;;;;;;4830324;29;20053;-92
2021/08/28 06:49:41;;;;;;;10.23;2.92;;;16.90;99.90;;;;;;4850488;29;20482;-90
2021/08/28 06:52:06;;;;;;;9.32;2.22;;;16.90;99.90;;;;;;4851576;29;20056;-91
2021/08/28 06:54:32;;;;;;;9.20;2.58;;;16.90;99.90;;;;;;4812470;29;20045;-93
2021/08/28 06:56:58;;;;;;;10.30;2.67;;;17.00;99.90;;;;;;4817075;29;20191;-94
2021/08/28 06:59:23;;;;;;;15.52;3.47;;;17.10;99.90;;;;;;4830086;29;20082;-93
2021/08/28 07:01:49;;;;;;;8.88;3.25;;;17.10;99.90;;;;;;4830561;29;20176;-93
2021/08/28 07:04:15;;;;;;;13.57;2.60;;;17.20;99.90;;;;;;4829536;29;20141;-94
2021/08/28 07:06:40;;;;;;;9.93;2.60;;;17.20;99.90;;;;;;4829316;29;20045;-90
2021/08/28 07:09:06;;;;;;;9.35;2.42;;;17.30;99.90;;;;;;4840762;29;20053;-93
2021/08/28 07:11:32;;;;;;;8.18;2.33;;;17.30;99.90;;;;;;4832900;29;20158;-92
2021/08/28 07:13:58;;;;;;;15.15;2.55;;;17.40;99.90;;;;;;4833353;29;20092;-91
2021/08/28 07:16:25;;;;;;;7.85;2.03;;;17.40;99.90;;;;;;4851177;29;20136;-92
2021/08/28 07:18:51;;;;;;;10.98;2.47;;;17.30;99.90;;;;;;4857962;29;20506;-92
2021/08/28 07:21:18;;;;;;;11.30;2.10;;;17.30;99.90;;;;;;4845867;29;20062;-92
2021/08/28 07:23:44;;;;;;;9.52;2.08;;;17.30;99.90;;;;;;4825504;29;20065;-90
2021/08/28 07:26:10;;;;;;;9.20;2.33;;;17.20;99.90;;;;;;4826800;29;20042;-91
2021/08/28 07:28:36;;;;;;;8.38;1.95;;;17.20;99.90;;;;;;4850920;29;20479;-93
2021/08/28 07:31:02;;;;;;;10.18;2.53;;;17.20;99.90;;;;;;4852613;29;20410;-91
2021/08/28 07:33:28;;;;;;;4.05;1.75;;;17.20;99.90;;;;;;4856136;29;20202;-92
2021/08/28 07:35:54;;;;;;;3.45;1.88;;;17.10;99.90;;;;;;4841986;29;20053;-92
2021/08/28 07:38:20;;;;;;;5.25;2.30;;;17.10;99.90;;;;;;4845940;29;20060;-91
2021/08/28 07:40:47;;;;;;;7.28;2.17;;;17.10;99.90;;;;;;4858874;29;20057;-89
2021/08/28 07:43:13;;;;;;;3.67;1.55;;;17.20;99.90;;;;;;4839919;29;20045;-93
2021/08/28 07:45:38;;;;;;;7.70;2.13;;;17.30;99.90;;;;;;4826142;29;20104;-92
2021/08/28 07:48:04;;;;;;;4.72;1.77;;;17.40;99.90;;;;;;4809116;29;20437;-93
2021/08/28 07:50:30;;;;;;;8.55;1.67;;;17.50;99.90;;;;;;4840983;29;20045;-91
2021/08/28 07:52:56;;;;;;;7.40;2.03;;;17.50;99.90;;;;;;4824652;29;20045;-94
2021/08/28 07:55:22;;;;;;;11.27;1.90;;;17.60;99.90;;;;;;4841489;29;20053;-90
2021/08/28 07:57:47;;;;;;;4.55;1.92;;;17.60;99.90;;;;;;4857953;29;20049;-90
2021/08/28 08:00:14;;;;;;;5.43;1.77;;;17.50;99.90;;;;;;4858321;29;20040;-93
2021/08/28 08:02:40;;;;;;;10.00;2.20;;;17.50;99.90;;;;;;4872719;29;20085;-92
2021/08/28 08:05:05;;;;;;;5.25;2.03;;;17.50;99.90;;;;;;4839448;29;20045;-91
2021/08/28 08:07:31;;;;;;;7.22;2.25;;;17.50;99.90;;;;;;4856712;29;20076;-93
2021/08/28 08:09:57;;;;;;;5.45;1.20;;;17.50;99.90;;;;;;4856481;29;20053;-95
2021/08/28 08:12:23;;;;;;;6.05;1.67;;;17.60;99.90;;;;;;4844832;29;20045;-95
2021/08/28 08:14:49;;;;;;;6.07;1.60;;;17.50;99.90;;;;;;4825455;29;20072;-91
2021/08/28 08:17:15;;;;;;;8.38;2.13;;;17.40;99.90;;;;;;4840369;29;20045;-93
2021/08/28 08:19:44;;;;;;;1.95;1.70;;;17.40;99.90;;;;;;4828041;29;20445;-92
2021/08/28 08:22:10;;;;;;;2.65;1.33;;;17.40;99.90;;;;;;4843045;29;20529;-92
2021/08/28 08:24:36;;;;;;;6.25;2.10;;;17.30;99.90;;;;;;4828443;29;20079;-92
2021/08/28 08:27:02;;;;;;;6.28;1.80;;;17.30;99.90;;;;;;4831069;29;20086;-92
2021/08/28 08:29:28;;;;;;;6.07;1.95;;;17.30;99.90;;;;;;4845919;29;20098;-91
2021/08/28 08:31:54;;;;;;;3.33;1.65;;;17.30;99.90;;;;;;4829103;29;20559;-89
2021/08/28 08:34:23;;;;;;;8.35;1.40;;;17.30;99.90;;;;;;4847951;29;20057;-92
2021/08/28 08:36:50;;;;;;;6.80;2.05;;;17.30;99.90;;;;;;4848853;29;20505;-92
2021/08/28 08:39:16;;;;;;;5.97;1.40;;;17.40;99.90;;;;;;4859168;29;20144;-92
2021/08/28 08:41:45;;;;;;;5.38;1.40;;;17.40;99.90;;;;;;4860057;29;20063;-89
2021/08/28 08:44:12;;;;;;;4.80;1.88;;;17.40;99.90;;;;;;4842750;29;20141;-91
2021/08/28 08:46:39;;;;;;;3.95;1.20;;;17.40;99.90;;;;;;4843545;29;20050;-90
2021/08/28 08:49:06;;;;;;;4.85;1.58;;;17.40;99.90;;;;;;4863659;29;20121;-93
2021/08/28 08:51:34;;;;;;;5.80;1.42;;;17.40;99.90;;;;;;4843640;29;20054;-92
2021/08/28 08:54:02;;;;;;;5.95;1.83;;;17.40;99.90;;;;;;4842367;29;20049;-92
2021/08/28 08:56:29;;;;;;;8.07;1.45;;;17.30;99.90;;;;;;4827961;29;20347;-92
2021/08/28 08:58:55;;;;;;;5.60;1.85;;;17.30;99.90;;;;;;4827840;29;20498;-89
2021/08/28 09:01:20;;;;;;;6.82;1.38;;;17.30;99.90;;;;;;4847343;29;20052;-93
2021/08/28 09:03:47;;;;;;;5.88;1.50;;;17.30;99.90;;;;;;4844997;29;20122;-91
2021/08/28 09:06:13;;;;;;;4.82;1.73;;;17.30;99.90;;;;;;4854291;29;20085;-93
2021/08/28 09:08:38;;;;;;;7.72;1.42;;;17.30;99.90;;;;;;4843865;29;20088;-92
2021/08/28 09:11:22;;;;;;;4.75;1.38;;;17.40;99.90;;;;;;4828500;29;20045;-92
2021/08/28 09:13:48;;;;;;;5.35;1.48;;;17.40;99.90;;;;;;4829671;29;20045;-92
2021/08/28 09:16:29;;;;;;;4.28;1.42;;;17.30;99.90;;;;;;4845085;29;20115;-86
2021/08/28 09:18:55;;;;;;;20.05;3.60;;;17.30;99.90;;;;;;4861577;29;20502;-89
2021/08/28 09:21:23;;;;;;;9.50;1.58;;;17.30;99.90;;;;;;4876985;29;20053;-91
2021/08/28 09:23:57;;;;;;;5.63;1.63;;;17.30;99.90;;;;;;4853556;29;20502;-91
2021/08/28 09:26:33;;;;;;;10.20;1.70;;;17.30;99.90;;;;;;4859346;29;20052;-92
2021/08/28 09:28:59;;;;;;;3.67;1.48;;;17.30;99.90;;;;;;4860969;29;20053;-87
2021/08/28 09:31:46;;;;;;;5.65;1.40;;;17.30;99.90;;;;;;4860693;29;20059;-93
2021/08/28 09:34:27;;;;;;;6.72;1.60;;;17.30;99.90;;;;;;4852550;29;20406;-91
2021/08/28 09:37:00;;;;;;;4.90;1.40;;;17.30;99.90;;;;;;4863287;29;20056;-89
2021/08/28 09:39:44;;;;;;;9.57;1.77;;;17.30;99.90;;;;;;4831482;29;20060;-90
2021/08/28 09:42:18;;;;;;;8.70;1.55;;;17.30;99.90;;;;;;4860683;29;20068;-88
2021/08/28 09:44:45;;;;;;;7.80;1.40;;;17.30;99.90;;;;;;4860747;29;20127;-88
2021/08/28 09:47:15;;;;;;;3.90;1.52;;;17.30;99.90;;;;;;4860248;29;20057;-91
2021/08/28 09:49:46;;;;;;;9.60;1.42;;;17.40;99.90;;;;;;4848201;29;20055;-90
2021/08/28 09:52:23;;;;;;;9.50;1.35;;;17.50;99.90;;;;;;4845131;29;20055;-90
2021/08/28 09:54:50;;;;;;;6.75;1.23;;;17.70;99.90;;;;;;4860768;29;20068;-90
2021/08/28 09:57:16;;;;;;;10.02;1.58;;;17.80;99.90;;;;;;4845138;29;20079;-91
2021/08/28 09:59:43;;;;;;;4.90;1.50;;;17.90;99.90;;;;;;4845617;29;20052;-91
2021/08/28 10:02:11;;;;;;;7.68;1.30;;;17.80;99.90;;;;;;4859873;29;20562;-90
2021/08/28 10:04:54;;;;;;;4.78;1.40;;;17.70;99.90;;;;;;4841412;29;20092;-92
2021/08/28 10:07:28;;;;;;;4.25;1.30;;;17.70;99.90;;;;;;4847240;29;20048;-90
2021/08/28 10:10:03;;;;;;;4.65;1.50;;;17.70;99.90;;;;;;4836919;29;20057;-87
2021/08/28 10:12:34;;;;;;;3.85;1.33;;;17.70;99.90;;;;;;4856626;29;20052;-91
2021/08/28 10:15:06;;;;;;;6.47;1.60;;;17.50;99.90;;;;;;4841497;29;20059;-92
2021/08/28 10:17:32;;;;;;;12.77;1.45;;;17.50;99.90;;;;;;4857721;29;20057;-92
2021/08/28 10:19:58;;;;;;;8.98;1.88;;;17.40;99.90;;;;;;4844833;29;20584;-92
2021/08/28 10:22:27;;;;;;;7.05;1.10;;;17.40;99.90;;;;;;4844367;29;20955;-90
2021/08/28 10:24:58;;;;;;;9.18;1.33;;;17.30;99.90;;;;;;4854988;29;20048;-90
2021/08/28 10:27:28;;;;;;;4.40;1.30;;;17.20;99.90;;;;;;4855082;29;20056;-93
2021/08/28 10:29:54;;;;;;;2.38;1.10;;;17.10;99.90;;;;;;4860475;29;20053;-91
2021/08/28 10:32:21;;;;;;;6.57;1.92;;;17.00;99.90;;;;;;4876090;29;20041;-90
2021/08/28 10:34:48;;;;;;;3.97;0.82;;;17.00;99.90;;;;;;4831942;29;20057;-93
2021/08/28 10:37:14;;;;;;;5.20;1.13;;;17.10;99.90;;;;;;4839940;29;20076;-91
2021/08/28 10:39:42;;;;;;;4.80;1.35;;;17.10;99.90;;;;;;4852787;29;20128;-93
2021/08/28 10:42:10;;;;;;;9.35;2.58;;;17.30;99.90;;;;;;4859363;29;20055;-89
2021/08/28 10:44:36;;;;;;;5.88;1.38;;;17.40;99.90;;;;;;4841300;29;20052;-94
2021/08/28 10:47:14;;;;;;;6.25;1.85;;;17.60;99.90;;;;;;4858129;29;20623;-94
2021/08/28 10:49:45;;;;;;;8.27;1.85;;;17.70;99.90;;;;;;4831803;29;20190;-93
2021/08/28 10:52:22;;;;;;;3.72;1.00;;;17.90;99.90;;;;;;4828438;29;20116;-87
2021/08/28 10:54:56;;;;;;;9.10;1.83;;;18.00;99.90;;;;;;4860726;29;20057;-90
2021/08/28 10:57:28;;;;;;;3.88;1.52;;;17.90;99.90;;;;;;4843477;29;20044;-90
2021/08/28 11:00:04;;;;;;;8.32;1.58;;;17.90;99.90;;;;;;4842729;29;20490;-89
2021/08/28 11:02:46;;;;;;;6.60;1.50;;;17.90;99.90;;;;;;4854583;29;20080;-90
2021/08/28 11:05:16;;;;;;;6.18;1.48;;;17.90;99.90;;;;;;4876729;29;20049;-88
2021/08/28 11:07:43;;;;;;;5.60;1.00;;;17.90;99.90;;;;;;4856989;29;20061;-90
2021/08/28 11:10:25;;;;;;;14.18;3.55;;;17.90;99.90;;;;;;4845717;29;20049;-92
2021/08/28 11:13:04;;;;;;;9.40;1.60;;;17.80;99.90;;;;;;4844184;29;20486;-91
2021/08/28 11:15:33;;;;;;;3.30;1.60;;;17.80;99.90;;;;;;4875857;29;20083;-92
2021/08/28 11:18:01;;;;;;;7.88;1.30;;;17.70;99.90;;;;;;4857984;29;20048;-91
2021/08/28 11:20:28;;;;;;;5.78;1.33;;;17.60;99.90;;;;;;4866886;29;20068;-91
2021/08/28 11:22:54;;;;;;;6.20;1.35;;;17.70;99.90;;;;;;4857785;29;20061;-89
2021/08/28 11:25:29;;;;;;;4.25;1.20;;;17.70;99.90;;;;;;4859041;29;20091;-93
2021/08/28 11:27:56;;;;;;;5.25;1.30;;;17.70;99.90;;;;;;4854737;29;20053;-91
2021/08/28 11:30:46;;;;;;;3.92;1.10;;;17.60;99.90;;;;;;4859003;29;20052;-89
2021/08/28 11:33:20;;;;;;;6.88;1.30;;;17.50;99.90;;;;;;4859221;29;20119;-92
2021/08/28 11:35:47;;;;;;;12.30;1.55;;;17.40;99.90;;;;;;4859778;29;20053;-88
2021/08/28 11:38:13;;;;;;;5.78;1.55;;;17.40;99.90;;;;;;4828817;29;20060;-92
2021/08/28 11:40:40;;;;;;;3.03;1.02;;;17.40;99.90;;;;;;4856901;29;20124;-91
2021/08/28 11:43:11;;;;;;;6.47;1.60;;;17.40;99.90;;;;;;4853666;29;20044;-89
2021/08/28 11:45:40;;;;;;;7.97;1.17;;;17.40;99.90;;;;;;4834295;29;20053;-92
2021/08/28 11:48:13;;;;;;;5.43;1.27;;;17.40;99.90;;;;;;4866769;29;20222;-91
2021/08/28 11:50:41;;;;;;;4.80;1.40;;;17.40;99.90;;;;;;4844588;29;20045;-91
2021/08/28 11:53:08;;;;;;;6.97;1.23;;;17.30;99.90;;;;;;4853437;29;20069;-92
2021/08/28 11:55:35;;;;;;;8.18;1.75;;;17.40;99.90;;;;;;4857872;29;20044;-91
2021/08/28 11:58:07;;;;;;;9.13;1.50;;;17.40;99.90;;;;;;4859991;29;20049;-90
2021/08/28 12:00:34;;;;;;;8.23;1.33;;;17.40;99.90;;;;;;4865101;29;20049;-89
2021/08/28 12:03:00;;;;;;;3.28;1.25;;;17.50;99.90;;;;;;4860478;29;20104;-89
2021/08/28 12:05:29;;;;;;;3.53;1.00;;;17.50;99.90;;;;;;4842611;29;20398;-91
2021/08/28 12:07:55;;;;;;;2.50;1.20;;;17.40;99.90;;;;;;4878497;29;20478;-91
2021/08/28 12:10:21;;;;;;;3.10;1.05;;;17.40;99.90;;;;;;4816582;29;20060;-89
2021/08/28 12:13:04;;;;;;;11.35;2.15;;;17.50;99.90;;;;;;4842216;29;20053;-92
2021/08/28 12:15:30;;;;;;;8.25;1.63;;;17.50;99.90;;;;;;4851331;29;20088;-91
2021/08/28 12:17:58;;;;;;;10.13;1.27;;;17.70;99.90;;;;;;4839333;29;20113;-93
2021/08/28 12:20:29;;;;;;;5.32;0.90;;;17.70;99.90;;;;;;4861166;29;20443;-90
2021/08/28 12:22:57;;;;;;;9.27;1.05;;;17.60;99.90;;;;;;4878614;29;20048;-91
2021/08/28 12:25:22;;;;;;;13.55;1.52;;;17.50;99.90;;;;;;4856478;29;20606;-87
2021/08/28 12:27:51;;;;;;;3.28;0.85;;;17.40;99.90;;;;;;4846977;29;20137;-90
2021/08/28 12:30:17;;;;;;;9.90;1.95;;;17.30;99.90;;;;;;4862717;29;20409;-92
2021/08/28 12:32:43;;;;;;;7.00;1.30;;;17.30;99.90;;;;;;4861084;29;20057;-91
2021/08/28 12:35:09;;;;;;;2.58;0.90;;;17.30;99.90;;;;;;4858361;29;20465;-93
2021/08/28 12:37:37;;;;;;;4.07;1.13;;;17.30;99.90;;;;;;4861396;29;20143;-91
2021/08/28 12:40:14;;;;;;;7.97;1.17;;;17.30;99.90;;;;;;4861827;29;20053;-89
2021/08/28 12:42:45;;;;;;;4.82;1.08;;;17.20;99.90;;;;;;4861363;29;20083;-92
2021/08/28 12:45:15;;;;;;;5.63;1.30;;;17.30;99.90;;;;;;4858830;29;20061;-90
2021/08/28 12:47:44;;;;;;;2.95;1.10;;;17.30;99.90;;;;;;4850007;29;20053;-92